createdAt,value
2019-02-18T00:01:14.313Z,15.83
2019-02-18T00:03:44.809Z,12.90
2019-02-18T00:06:15.313Z,15.37
2019-02-18T00:08:46.007Z,18.17
2019-02-18T00:11:16.489Z,14.40
2019-02-18T00:13:46.971Z,19.33
2019-02-18T00:16:17.441Z,15.60
2019-02-18T00:18:47.932Z,18.67
2019-02-18T00:21:18.395Z,20.23
2019-02-18T00:23:48.865Z,14.87
2019-02-18T00:26:19.355Z,20.10
2019-02-18T00:28:49.854Z,18.13
2019-02-18T00:31:20.266Z,16.40
2019-02-18T00:33:50.753Z,13.57
2019-02-18T00:36:21.208Z,12.73
2019-02-18T00:38:51.698Z,15.73
2019-02-18T00:41:22.162Z,15.50
2019-02-18T00:43:52.638Z,17.13
2019-02-18T00:46:23.141Z,17.33
2019-02-18T00:48:53.805Z,21.33
2019-02-18T00:51:24.291Z,20.30
2019-02-18T00:53:55.061Z,16.07
2019-02-18T00:56:25.504Z,14.20
2019-02-18T00:58:56.866Z,16.90
2019-02-18T01:01:27.329Z,16.03
2019-02-18T01:03:57.781Z,24.07
2019-02-18T01:06:28.373Z,23.23
2019-02-18T01:08:58.840Z,14.53
2019-02-18T01:11:29.638Z,12.63
2019-02-18T01:14:00.137Z,25.67
2019-02-18T01:16:30.634Z,12.93
2019-02-18T01:19:01.124Z,20.47
2019-02-18T01:21:31.620Z,22.67
2019-02-18T01:24:02.127Z,18.27
2019-02-18T01:26:32.609Z,15.43
2019-02-18T01:29:03.269Z,18.47
2019-02-18T01:31:33.738Z,21.17
2019-02-18T01:34:04.242Z,20.10
2019-02-18T01:36:34.721Z,26.53
2019-02-18T01:39:06.143Z,21.30
2019-02-18T01:41:36.625Z,18.00
2019-02-18T01:44:07.069Z,21.20
2019-02-18T01:46:37.525Z,24.70
2019-02-18T01:49:07.983Z,21.23
2019-02-18T01:51:38.484Z,21.77
2019-02-18T01:54:08.968Z,23.27
2019-02-18T01:56:39.940Z,22.03
2019-02-18T01:59:10.423Z,19.83
2019-02-18T02:01:40.888Z,19.87
2019-02-18T02:04:11.340Z,21.33
2019-02-18T02:06:41.813Z,17.10
2019-02-18T02:09:14.332Z,26.87
2019-02-18T02:11:44.839Z,23.30
2019-02-18T02:14:15.308Z,29.87
2019-02-18T02:16:45.821Z,30.27
2019-02-18T02:19:16.429Z,23.83
2019-02-18T02:21:46.885Z,23.87
2019-02-18T02:24:18.279Z,28.07
2019-02-18T02:26:48.851Z,26.87
2019-02-18T02:29:19.305Z,28.43
2019-02-18T02:31:49.774Z,23.70
2019-02-18T02:34:20.439Z,26.07
2019-02-18T02:36:50.923Z,27.03
2019-02-18T02:39:21.368Z,25.17
2019-02-18T02:41:51.852Z,24.20
2019-02-18T02:44:22.294Z,25.43
2019-02-18T02:46:52.753Z,30.87
2019-02-18T02:49:23.194Z,31.27
2019-02-18T02:51:53.672Z,26.77
2019-02-18T02:54:24.153Z,28.37
2019-02-18T02:56:54.678Z,30.83
2019-02-18T02:59:25.222Z,30.93
2019-02-18T03:01:55.740Z,38.60
2019-02-18T03:04:26.188Z,33.50
2019-02-18T03:06:56.735Z,33.50
2019-02-18T03:09:27.231Z,33.07
2019-02-18T03:11:57.691Z,30.90
2019-02-18T03:14:28.213Z,22.80
2019-02-18T03:16:58.664Z,34.67
2019-02-18T03:19:29.109Z,22.70
2019-02-18T03:21:59.568Z,26.70
2019-02-18T03:24:30.039Z,29.57
2019-02-18T03:27:00.558Z,27.27
2019-02-18T03:30:32.000Z,25.17
2019-02-18T03:33:02.499Z,29.57
2019-02-18T03:35:33.031Z,27.77
2019-02-18T03:38:03.441Z,30.20
2019-02-18T03:40:33.894Z,24.70
2019-02-18T03:43:04.435Z,24.07
2019-02-18T03:45:34.915Z,29.37
2019-02-18T03:48:05.358Z,25.60
2019-02-18T03:50:35.777Z,27.37
2019-02-18T03:53:06.230Z,26.40
2019-02-18T03:55:36.669Z,22.83
2019-02-18T03:58:07.246Z,22.47
2019-02-18T04:00:37.687Z,22.70
2019-02-18T04:03:08.141Z,30.23
2019-02-18T04:05:38.673Z,23.10
2019-02-18T04:08:09.115Z,27.53
2019-02-18T04:10:39.558Z,25.23
2019-02-18T04:13:10.019Z,30.60
2019-02-18T04:15:40.566Z,37.23
2019-02-18T04:18:11.011Z,30.17
2019-02-18T04:20:41.414Z,23.70
2019-02-18T04:23:11.824Z,26.17
2019-02-18T04:25:42.251Z,33.47
2019-02-18T04:28:12.716Z,24.10
2019-02-18T04:30:43.153Z,27.43
2019-02-18T04:33:13.608Z,21.57
2019-02-18T04:35:44.002Z,19.40
2019-02-18T04:38:14.431Z,23.77
2019-02-18T04:40:44.881Z,24.60
2019-02-18T04:43:15.299Z,23.97
2019-02-18T04:45:45.784Z,18.43
2019-02-18T04:48:16.201Z,15.57
2019-02-18T04:50:46.621Z,13.70
2019-02-18T04:53:17.062Z,17.90
2019-02-18T04:55:47.492Z,16.03
2019-02-18T04:58:17.938Z,27.63
2019-02-18T05:00:48.357Z,17.87
2019-02-18T05:03:18.767Z,21.40
2019-02-18T05:05:49.290Z,12.57
2019-02-18T05:08:19.754Z,21.67
2019-02-18T05:10:50.226Z,19.63
2019-02-18T05:13:21.342Z,20.33
2019-02-18T05:15:51.757Z,18.70
2019-02-18T05:18:22.257Z,19.23
2019-02-18T05:20:52.709Z,21.70
2019-02-18T05:23:23.121Z,32.20
2019-02-18T05:25:53.553Z,27.00
2019-02-18T05:28:23.969Z,31.47
2019-02-18T05:30:54.395Z,22.83
2019-02-18T05:33:24.793Z,21.37
2019-02-18T05:35:56.028Z,20.77
2019-02-18T05:38:26.568Z,30.63
2019-02-18T05:40:56.993Z,24.20
2019-02-18T05:43:27.408Z,20.47
2019-02-18T05:45:57.825Z,21.67
2019-02-18T05:48:28.246Z,18.23
2019-02-18T05:50:58.647Z,24.60
2019-02-18T05:53:29.090Z,23.87
2019-02-18T05:55:59.498Z,26.33
2019-02-18T05:58:29.934Z,24.13
2019-02-18T06:01:00.368Z,30.57
2019-02-18T06:03:30.904Z,20.23
2019-02-18T06:06:01.457Z,26.30
2019-02-18T06:08:31.902Z,29.63
2019-02-18T06:11:02.321Z,22.57
2019-02-18T06:13:32.764Z,31.07
2019-02-18T06:16:03.247Z,26.90
2019-02-18T06:18:33.645Z,27.43
2019-02-18T06:21:04.110Z,24.17
2019-02-18T06:23:34.516Z,28.20
2019-02-18T06:26:04.957Z,28.33
2019-02-18T06:28:35.398Z,23.83
2019-02-18T06:31:05.813Z,24.70
2019-02-18T06:33:36.205Z,24.47
2019-02-18T06:36:06.635Z,22.23
2019-02-18T06:38:37.097Z,18.20
2019-02-18T06:41:07.558Z,22.17
2019-02-18T06:43:38.051Z,25.50
2019-02-18T06:46:20.848Z,24.77
2019-02-18T06:48:54.996Z,25.00
2019-02-18T06:51:25.454Z,24.10
2019-02-18T06:53:55.847Z,30.27
2019-02-18T06:56:44.516Z,29.10
2019-02-18T06:59:39.650Z,24.90
2019-02-18T07:02:17.821Z,30.10
2019-02-18T07:05:13.216Z,19.53
2019-02-18T07:08:01.038Z,24.80
2019-02-18T07:10:42.356Z,35.63
2019-02-18T07:13:12.802Z,23.93
2019-02-18T07:15:43.237Z,26.10
2019-02-18T07:18:13.687Z,20.43
2019-02-18T07:20:44.134Z,27.93
2019-02-18T07:23:14.584Z,16.37
2019-02-18T07:25:44.997Z,21.10
2019-02-18T07:28:15.639Z,21.27
2019-02-18T07:30:46.123Z,20.77
2019-02-18T07:33:16.522Z,17.63
2019-02-18T07:35:46.920Z,29.60
2019-02-18T07:38:17.360Z,17.60
2019-02-18T07:40:47.814Z,17.37
2019-02-18T07:43:18.265Z,18.73
2019-02-18T07:45:48.741Z,20.67
2019-02-18T07:48:19.417Z,19.40
2019-02-18T07:50:49.815Z,16.17
2019-02-18T07:53:20.359Z,14.80
2019-02-18T07:55:50.809Z,15.20
2019-02-18T07:58:21.259Z,16.30
2019-02-18T08:00:51.718Z,16.90
2019-02-18T08:03:22.149Z,17.80
2019-02-18T08:05:52.571Z,14.37
2019-02-18T08:08:22.972Z,14.20
2019-02-18T08:10:53.391Z,14.17
2019-02-18T08:13:23.856Z,15.10
2019-02-18T08:15:54.310Z,16.80
2019-02-18T08:18:24.740Z,18.33
2019-02-18T08:20:55.215Z,17.27
2019-02-18T08:23:25.638Z,19.07
2019-02-18T08:25:56.252Z,25.93
2019-02-18T08:28:26.775Z,19.83
2019-02-18T08:30:57.235Z,17.70
2019-02-18T08:33:27.740Z,22.93
2019-02-18T08:35:58.184Z,17.93
2019-02-18T08:38:28.641Z,19.07
2019-02-18T08:40:59.101Z,21.90
2019-02-18T08:43:29.549Z,18.57
2019-02-18T08:45:59.991Z,18.50
2019-02-18T08:48:30.441Z,18.60
2019-02-18T08:51:00.914Z,22.57
2019-02-18T08:53:31.328Z,21.40
2019-02-18T08:56:01.779Z,25.03
2019-02-18T08:58:32.492Z,23.80
2019-02-18T09:01:03.099Z,21.30
2019-02-18T09:03:33.623Z,29.90
2019-02-18T09:06:04.181Z,26.23
2019-02-18T09:08:34.924Z,28.37
2019-02-18T09:11:05.373Z,25.33
2019-02-18T09:13:35.894Z,30.83
2019-02-18T09:16:06.324Z,26.20
2019-02-18T09:18:36.776Z,23.90
2019-02-18T09:21:07.210Z,26.93
2019-02-18T09:24:02.587Z,23.13
2019-02-18T09:26:33.455Z,25.97
2019-02-18T09:29:03.943Z,28.63
2019-02-18T09:31:36.255Z,24.93
2019-02-18T09:34:06.715Z,25.00
2019-02-18T09:36:37.157Z,29.53
2019-02-18T09:39:30.012Z,21.17
2019-02-18T09:41:51.049Z,22.30
2019-02-18T09:44:21.524Z,17.30
2019-02-18T09:46:51.930Z,20.63
2019-02-18T09:49:22.389Z,27.00
2019-02-18T09:51:52.839Z,21.03
2019-02-18T09:54:23.288Z,27.53
2019-02-18T09:56:53.748Z,23.30
2019-02-18T09:59:24.193Z,24.43
2019-02-18T10:01:54.626Z,22.57
2019-02-18T10:04:25.088Z,20.70
2019-02-18T10:06:55.517Z,22.73
2019-02-18T10:09:26.015Z,25.50
2019-02-18T10:11:56.470Z,26.63
2019-02-18T10:14:26.912Z,21.03
2019-02-18T10:16:57.421Z,27.37
2019-02-18T10:19:27.868Z,22.47
2019-02-18T10:21:58.375Z,27.50
2019-02-18T10:24:28.963Z,24.43
2019-02-18T10:27:01.262Z,31.97
2019-02-18T10:29:31.890Z,28.90
2019-02-18T10:32:02.359Z,40.70
2019-02-18T10:34:32.779Z,36.47
2019-02-18T10:37:03.242Z,28.10
2019-02-18T10:39:33.684Z,27.50
2019-02-18T10:42:04.365Z,26.93
2019-02-18T10:44:34.778Z,27.77
2019-02-18T10:47:05.483Z,22.30
2019-02-18T10:49:36.316Z,24.17
2019-02-18T10:52:06.735Z,23.70
2019-02-18T10:54:37.174Z,20.93
2019-02-18T10:57:07.629Z,21.13
2019-02-18T10:59:38.362Z,28.73
2019-02-18T11:02:09.793Z,19.77
2019-02-18T11:04:40.224Z,22.20
2019-02-18T11:07:10.736Z,18.20
2019-02-18T11:09:41.184Z,18.70
2019-02-18T11:12:11.624Z,14.13
2019-02-18T11:14:42.294Z,15.23
2019-02-18T11:17:12.894Z,19.70
2019-02-18T11:19:43.316Z,16.03
2019-02-18T11:22:13.770Z,20.77
2019-02-18T11:24:44.498Z,18.57
2019-02-18T11:27:17.095Z,18.20
2019-02-18T11:29:50.513Z,20.77
2019-02-18T11:32:24.264Z,14.60
2019-02-18T11:34:55.270Z,15.87
2019-02-18T11:37:36.030Z,20.33
2019-02-18T11:40:17.364Z,11.07
2019-02-18T11:42:54.850Z,14.17
2019-02-18T11:45:30.855Z,13.57
2019-02-18T11:48:01.556Z,13.50
2019-02-18T11:50:32.000Z,10.60
2019-02-18T11:53:02.447Z,13.80
2019-02-18T11:55:35.734Z,14.00
2019-02-18T11:58:05.109Z,19.20
2019-02-18T12:00:35.568Z,16.30
2019-02-18T12:03:12.073Z,11.47
2019-02-18T12:05:38.190Z,14.90
2019-02-18T12:08:08.806Z,12.40
2019-02-18T12:10:39.245Z,20.37
2019-02-18T12:13:09.669Z,22.50
2019-02-18T12:15:40.096Z,16.30
2019-02-18T12:18:10.540Z,18.83
2019-02-18T12:20:40.999Z,23.23
2019-02-18T12:23:11.425Z,26.33
2019-02-18T12:25:42.053Z,24.70
2019-02-18T12:28:12.496Z,25.93
2019-02-18T12:30:42.968Z,27.93
2019-02-18T12:33:14.549Z,26.17
2019-02-18T12:35:45.455Z,24.13
2019-02-18T12:38:17.413Z,22.43
2019-02-18T12:40:49.023Z,30.27
2019-02-18T12:43:19.649Z,23.57
2019-02-18T12:45:52.023Z,18.67
2019-02-18T12:48:22.776Z,26.60
2019-02-18T12:50:53.277Z,22.10
2019-02-18T12:53:23.724Z,22.90
2019-02-18T12:55:54.257Z,20.40
2019-02-18T12:58:24.968Z,20.80
2019-02-18T13:00:55.391Z,23.03
2019-02-18T13:03:26.079Z,18.30
2019-02-18T13:05:56.550Z,22.17
2019-02-18T13:08:27.091Z,27.50
2019-02-18T13:10:57.550Z,29.23
2019-02-18T13:13:28.004Z,19.87
2019-02-18T13:15:58.485Z,30.23
2019-02-18T13:18:28.981Z,27.23
2019-02-18T13:20:59.451Z,22.10
2019-02-18T13:23:30.259Z,23.03
2019-02-18T13:26:00.714Z,23.00
2019-02-18T13:28:31.173Z,26.47
2019-02-18T13:31:01.632Z,39.10
2019-02-18T13:33:32.374Z,17.43
2019-02-18T13:36:02.832Z,16.53
2019-02-18T13:38:33.302Z,15.53
2019-02-18T13:41:03.838Z,22.03
2019-02-18T13:43:34.574Z,20.50
2019-02-18T13:46:05.145Z,20.43
2019-02-18T13:48:35.772Z,21.17
2019-02-18T13:51:06.241Z,15.20
2019-02-18T13:53:36.726Z,15.03
2019-02-18T13:56:07.948Z,12.70
2019-02-18T13:58:38.361Z,15.80
2019-02-18T14:01:09.497Z,16.50
2019-02-18T14:03:40.012Z,15.07
2019-02-18T14:06:10.564Z,17.77
2019-02-18T14:08:41.010Z,22.93
2019-02-18T14:11:11.675Z,39.87
2019-02-18T14:13:42.090Z,44.80
2019-02-18T14:16:12.568Z,20.07
2019-02-18T14:18:43.074Z,24.77
2019-02-18T14:21:13.712Z,22.60
2019-02-18T14:23:44.191Z,23.93
2019-02-18T14:26:14.818Z,17.47
2019-02-18T14:28:45.507Z,21.63
2019-02-18T14:31:15.949Z,20.53
2019-02-18T14:33:46.427Z,30.77
2019-02-18T14:36:16.889Z,28.47
2019-02-18T14:38:47.386Z,23.43
2019-02-18T14:41:18.355Z,22.73
2019-02-18T14:43:48.820Z,22.40
2019-02-18T14:46:19.259Z,19.13
2019-02-18T14:48:49.718Z,23.30
2019-02-18T14:51:20.218Z,20.23
2019-02-18T14:53:50.879Z,23.13
2019-02-18T14:56:22.024Z,19.60
2019-02-18T14:58:52.701Z,17.97
2019-02-18T15:01:23.194Z,74.77
2019-02-18T15:03:53.617Z,23.37
2019-02-18T15:06:24.064Z,22.27
2019-02-18T15:08:54.913Z,28.93
2019-02-18T15:11:25.422Z,23.60
2019-02-18T15:13:55.912Z,23.00
2019-02-18T15:16:26.372Z,17.50
2019-02-18T15:18:56.859Z,17.00
2019-02-18T15:21:27.266Z,20.80
2019-02-18T15:23:57.757Z,23.47
2019-02-18T15:26:28.238Z,22.17
2019-02-18T15:28:58.750Z,24.83
2019-02-18T15:31:29.260Z,29.43
2019-02-18T15:33:59.714Z,19.60
2019-02-18T15:36:30.188Z,22.03
2019-02-18T15:39:00.669Z,22.27
2019-02-18T15:41:31.111Z,15.50
2019-02-18T15:44:01.634Z,18.93
2019-02-18T15:46:32.137Z,26.80
2019-02-18T15:49:03.113Z,16.23
2019-02-18T15:51:33.630Z,21.80
2019-02-18T15:54:04.089Z,16.13
2019-02-18T15:56:34.589Z,20.13
2019-02-18T15:59:05.296Z,15.63
2019-02-18T16:01:35.789Z,18.30
2019-02-18T16:04:06.464Z,18.60
2019-02-18T16:06:36.977Z,9.03
2019-02-18T16:09:08.587Z,13.10
2019-02-18T16:11:39.109Z,12.67
2019-02-18T16:14:09.599Z,9.83
2019-02-18T16:16:40.300Z,14.60
2019-02-18T16:19:10.795Z,18.10
2019-02-18T16:21:41.406Z,13.30
2019-02-18T16:24:19.624Z,13.60
2019-02-18T16:26:44.035Z,15.27
2019-02-18T16:29:15.000Z,10.40
2019-02-18T16:31:45.776Z,11.50
2019-02-18T16:34:16.239Z,21.10
2019-02-18T16:36:47.053Z,11.07
2019-02-18T16:39:17.624Z,22.90
2019-02-18T16:41:48.182Z,19.73
2019-02-18T16:44:18.682Z,12.40
2019-02-18T16:46:51.378Z,14.77
2019-02-18T16:49:21.918Z,12.33
2019-02-18T16:51:52.423Z,24.13
2019-02-18T16:54:23.387Z,19.07
2019-02-18T16:56:53.954Z,9.20
2019-02-18T16:59:24.444Z,15.40
2019-02-18T17:01:55.070Z,12.70
2019-02-18T17:04:27.359Z,9.93
2019-02-18T17:06:57.747Z,18.63
2019-02-18T17:09:28.559Z,13.07
2019-02-18T17:11:59.084Z,16.03
2019-02-18T17:14:29.772Z,12.90
2019-02-18T17:17:00.488Z,16.87
2019-02-18T17:19:31.183Z,11.77
2019-02-18T17:22:02.043Z,9.60
2019-02-18T17:24:32.521Z,6.70
2019-02-18T17:27:02.988Z,10.20
2019-02-18T17:29:33.486Z,18.53
2019-02-18T17:32:04.024Z,13.00
2019-02-18T17:34:34.446Z,9.23
2019-02-18T17:37:04.968Z,18.10
2019-02-18T17:39:35.711Z,9.77
2019-02-18T17:42:06.319Z,12.57
2019-02-18T17:44:36.869Z,13.27
2019-02-18T17:47:07.457Z,10.67
2019-02-18T17:49:38.522Z,14.00
2019-02-18T17:52:09.288Z,12.23
2019-02-18T17:54:41.864Z,13.07
2019-02-18T17:57:12.478Z,20.83
2019-02-18T17:59:43.012Z,10.53
2019-02-18T18:02:13.567Z,14.47
2019-02-18T18:04:44.231Z,10.10
2019-02-18T18:07:14.793Z,20.57
2019-02-18T18:09:45.256Z,12.07
2019-02-18T18:12:15.781Z,14.17
2019-02-18T18:14:46.249Z,10.00
2019-02-18T18:17:17.087Z,15.33
2019-02-18T18:19:47.573Z,14.27
2019-02-18T18:22:18.445Z,10.20
2019-02-18T18:24:49.015Z,8.50
2019-02-18T18:27:19.500Z,16.30
2019-02-18T18:29:50.314Z,17.07
2019-02-18T18:32:20.814Z,12.67
2019-02-18T18:34:51.319Z,7.83
2019-02-18T18:37:21.978Z,14.53
2019-02-18T18:39:53.006Z,7.70
2019-02-18T18:42:23.541Z,9.60
2019-02-18T18:44:54.017Z,7.57
2019-02-18T18:47:24.546Z,14.67
2019-02-18T18:49:55.095Z,8.13
2019-02-18T18:52:25.541Z,6.07
2019-02-18T18:54:56.110Z,15.07
2019-02-18T18:57:26.578Z,9.30
2019-02-18T18:59:57.080Z,10.97
2019-02-18T19:02:27.873Z,9.47
2019-02-18T19:04:58.443Z,12.97
2019-02-18T19:07:28.997Z,13.80
2019-02-18T19:09:59.802Z,7.60
2019-02-18T19:12:30.320Z,9.77
2019-02-18T19:15:00.778Z,9.73
2019-02-18T19:17:31.336Z,15.47
2019-02-18T19:20:01.909Z,10.13
2019-02-18T19:22:32.943Z,11.47
2019-02-18T19:25:03.430Z,8.80
2019-02-18T19:27:33.983Z,6.93
2019-02-18T19:30:05.019Z,16.67
2019-02-18T19:32:35.439Z,19.97
2019-02-18T19:35:07.823Z,11.23
2019-02-18T19:37:38.299Z,12.00
2019-02-18T19:40:11.049Z,11.03
2019-02-18T19:42:41.599Z,12.87
2019-02-18T19:45:16.549Z,11.47
2019-02-18T19:47:47.107Z,8.17
2019-02-18T19:50:18.299Z,11.10
2019-02-18T19:52:49.087Z,10.33
2019-02-18T19:55:19.636Z,10.93
2019-02-18T19:57:50.356Z,5.80
2019-02-18T20:00:21.721Z,9.03
2019-02-18T20:02:52.417Z,8.70
2019-02-18T20:05:22.976Z,10.80
2019-02-18T20:07:53.790Z,9.97
2019-02-18T20:10:24.401Z,9.13
2019-02-18T20:12:55.235Z,11.40
2019-02-18T20:15:25.739Z,9.23
2019-02-18T20:17:56.237Z,9.10
2019-02-18T20:20:26.710Z,11.20
2019-02-18T20:22:57.660Z,5.27
2019-02-18T20:25:28.486Z,6.03
2019-02-18T20:27:59.067Z,16.20
2019-02-18T20:30:29.844Z,8.50
2019-02-18T20:33:00.299Z,8.23
2019-02-18T20:35:30.810Z,10.53
2019-02-18T20:38:01.407Z,6.10
2019-02-18T20:40:31.980Z,9.80
2019-02-18T20:43:02.479Z,10.90
2019-02-18T20:45:35.061Z,10.73
2019-02-18T20:48:05.566Z,9.80
2019-02-18T20:50:38.336Z,9.90
2019-02-18T20:53:08.855Z,11.20
2019-02-18T20:55:40.736Z,13.93
2019-02-18T20:58:11.291Z,9.60
2019-02-18T21:00:41.828Z,8.37
2019-02-18T21:03:12.398Z,6.77
2019-02-18T21:05:42.976Z,7.17
2019-02-18T21:08:13.523Z,5.27
2019-02-18T21:10:43.977Z,11.70
2019-02-18T21:13:14.456Z,5.83
2019-02-18T21:15:45.040Z,6.63
2019-02-18T21:18:15.906Z,9.10
2019-02-18T21:20:46.405Z,15.00
2019-02-18T21:23:16.927Z,11.53
2019-02-18T21:25:47.408Z,7.73
2019-02-18T21:28:17.924Z,6.80
2019-02-18T21:30:48.402Z,12.30
2019-02-18T21:33:18.943Z,6.77
2019-02-18T21:35:49.393Z,7.33
2019-02-18T21:38:19.873Z,11.90
2019-02-18T21:40:50.390Z,9.50
2019-02-18T21:43:20.810Z,7.97
2019-02-18T21:45:51.303Z,8.33
2019-02-18T21:48:21.739Z,7.10
2019-02-18T21:50:52.242Z,19.97
2019-02-18T21:53:22.746Z,6.07
2019-02-18T21:55:53.194Z,13.23
2019-02-18T21:58:24.893Z,17.40
2019-02-18T22:00:55.438Z,9.67
2019-02-18T22:03:25.962Z,6.40
2019-02-18T22:05:56.504Z,11.03
2019-02-18T22:08:27.010Z,4.53
2019-02-18T22:10:57.448Z,9.10
2019-02-18T22:13:27.936Z,7.70
2019-02-18T22:15:58.453Z,11.07
2019-02-18T22:18:28.906Z,6.07
2019-02-18T22:20:59.418Z,11.60
2019-02-18T22:23:29.893Z,5.77
2019-02-18T22:26:00.767Z,10.53
2019-02-18T22:28:31.646Z,5.60
2019-02-18T22:31:02.133Z,11.00
2019-02-18T22:33:32.597Z,6.20
2019-02-18T22:36:03.566Z,7.50
2019-02-18T22:38:34.020Z,8.50
2019-02-18T22:41:04.728Z,3.63
2019-02-18T22:43:35.418Z,10.47
2019-02-18T22:46:05.834Z,5.63
2019-02-18T22:48:36.299Z,10.33
2019-02-18T22:51:06.767Z,5.00
2019-02-18T22:53:37.278Z,8.97
2019-02-18T22:56:07.742Z,4.97
2019-02-18T22:58:38.156Z,5.13
2019-02-18T23:01:10.597Z,5.23
2019-02-18T23:03:41.288Z,7.37
2019-02-18T23:06:11.737Z,9.67
2019-02-18T23:08:42.484Z,9.13
2019-02-18T23:11:12.934Z,2.97
2019-02-18T23:13:43.558Z,3.10
2019-02-18T23:16:13.956Z,2.90
2019-02-18T23:18:44.385Z,5.73
2019-02-18T23:21:14.972Z,11.87
2019-02-18T23:23:45.695Z,4.80
2019-02-18T23:26:18.084Z,3.27
2019-02-18T23:28:48.474Z,2.80
2019-02-18T23:31:18.931Z,2.90
2019-02-18T23:33:49.342Z,2.73
2019-02-18T23:36:20.002Z,2.53
2019-02-18T23:38:50.803Z,6.27
2019-02-18T23:41:21.313Z,11.80
2019-02-18T23:43:51.731Z,5.80
2019-02-18T23:46:22.183Z,3.40
2019-02-18T23:48:52.621Z,3.83
2019-02-18T23:51:23.070Z,5.13
2019-02-18T23:53:53.500Z,5.73
2019-02-18T23:56:23.977Z,7.17
2019-02-18T23:58:54.405Z,5.40
